createdAt,value
2023-01-11T00:00:02.089Z,8.88
2023-01-11T00:03:34.480Z,8.53
2023-01-11T00:07:06.939Z,8.13
2023-01-11T00:10:39.023Z,9.85
2023-01-11T00:14:11.123Z,8.80
2023-01-11T00:17:42.871Z,9.35
2023-01-11T00:21:15.005Z,9.23
2023-01-11T00:24:46.780Z,7.00
2023-01-11T00:28:19.110Z,8.43
2023-01-11T00:31:50.839Z,8.48
2023-01-11T00:35:23.060Z,8.95
2023-01-11T00:38:55.556Z,7.93
2023-01-11T00:42:46.401Z,8.48
2023-01-11T00:46:37.740Z,7.93
2023-01-11T00:50:10.598Z,7.40
2023-01-11T00:53:42.364Z,8.45
2023-01-11T00:57:14.599Z,7.95
2023-01-11T01:00:46.354Z,7.45
2023-01-11T01:04:18.687Z,7.57
2023-01-11T01:07:50.748Z,7.68
2023-01-11T01:11:23.337Z,7.47
2023-01-11T01:14:55.090Z,8.40
2023-01-11T01:18:27.094Z,8.50
2023-01-11T01:22:00.075Z,8.13
2023-01-11T01:25:32.205Z,8.03
2023-01-11T01:29:04.268Z,8.05
2023-01-11T01:32:36.392Z,8.30
2023-01-11T01:36:09.030Z,9.27
2023-01-11T01:39:41.047Z,8.70
2023-01-11T01:43:17.679Z,8.48
2023-01-11T01:46:50.042Z,8.85
2023-01-11T01:50:39.555Z,9.87
2023-01-11T01:54:20.508Z,8.98
2023-01-11T01:57:54.346Z,8.60
2023-01-11T02:01:45.968Z,9.17
2023-01-11T02:05:18.495Z,9.82
2023-01-11T02:08:58.199Z,10.98
2023-01-11T02:12:58.315Z,8.57
2023-01-11T02:16:30.565Z,9.53
2023-01-11T02:20:08.355Z,9.73
2023-01-11T02:23:40.420Z,9.55
2023-01-11T02:27:34.083Z,8.43
2023-01-11T02:31:14.990Z,10.05
2023-01-11T02:34:55.493Z,10.00
2023-01-11T02:38:38.487Z,9.90
2023-01-11T02:43:09.003Z,9.20
2023-01-11T02:46:51.267Z,8.43
2023-01-11T02:50:31.925Z,8.80
2023-01-11T02:54:12.568Z,8.53
2023-01-11T02:57:46.463Z,8.35
2023-01-11T03:01:22.557Z,7.60
2023-01-11T03:04:54.581Z,7.23
2023-01-11T03:08:48.275Z,6.47
2023-01-11T03:12:44.537Z,7.35
2023-01-11T03:16:44.872Z,5.83
2023-01-11T03:20:31.702Z,6.35
2023-01-11T03:24:33.294Z,6.97
2023-01-11T03:28:06.104Z,6.53
2023-01-11T03:31:52.895Z,6.23
2023-01-11T03:35:51.165Z,7.50
2023-01-11T03:39:44.973Z,6.22
2023-01-11T03:43:19.392Z,6.43
2023-01-11T03:46:56.590Z,6.30
2023-01-11T03:50:30.283Z,5.07
2023-01-11T03:54:06.694Z,5.80
2023-01-11T03:57:42.709Z,5.78
2023-01-11T04:01:15.219Z,6.28
2023-01-11T04:04:47.393Z,5.82
2023-01-11T04:08:19.830Z,5.07
2023-01-11T04:11:51.668Z,6.82
2023-01-11T04:15:23.794Z,5.63
2023-01-11T04:18:55.572Z,4.63
2023-01-11T04:22:27.601Z,5.95
2023-01-11T04:25:59.292Z,6.32
2023-01-11T04:29:31.420Z,6.60
2023-01-11T04:33:03.353Z,5.13
2023-01-11T04:36:35.586Z,5.18
2023-01-11T04:40:08.101Z,5.85
2023-01-11T04:43:40.217Z,6.13
2023-01-11T04:47:12.078Z,5.55
2023-01-11T04:50:44.217Z,5.85
2023-01-11T04:54:16.378Z,4.53
2023-01-11T04:57:48.511Z,5.65
2023-01-11T05:01:20.451Z,5.47
2023-01-11T05:04:52.581Z,5.63
2023-01-11T05:08:25.898Z,7.10
2023-01-11T05:11:58.037Z,7.53
2023-01-11T05:15:29.756Z,7.57
2023-01-11T05:19:02.547Z,6.80
2023-01-11T05:22:34.281Z,4.32
2023-01-11T05:26:09.414Z,6.22
2023-01-11T05:29:41.123Z,6.33
2023-01-11T05:33:13.271Z,6.70
2023-01-11T05:36:45.600Z,5.63
2023-01-11T05:40:17.887Z,4.53
2023-01-11T05:44:10.243Z,5.00
2023-01-11T05:47:42.611Z,5.60
2023-01-11T05:51:14.776Z,5.43
2023-01-11T05:54:47.338Z,4.87
2023-01-11T05:58:19.271Z,6.60
2023-01-11T06:01:51.371Z,5.25
2023-01-11T06:05:23.255Z,4.03
2023-01-11T06:08:55.406Z,6.10
2023-01-11T06:12:27.264Z,3.95
2023-01-11T06:16:01.504Z,4.97
2023-01-11T06:19:33.374Z,6.07
2023-01-11T06:23:05.441Z,5.75
2023-01-11T06:26:37.201Z,5.15
2023-01-11T06:30:09.947Z,5.77
2023-01-11T06:33:41.779Z,5.82
2023-01-11T06:37:13.765Z,5.63
2023-01-11T06:40:55.546Z,5.10
2023-01-11T06:44:27.893Z,5.88
2023-01-11T06:48:00.433Z,5.70
2023-01-11T06:51:32.244Z,5.47
2023-01-11T06:55:04.853Z,4.93
2023-01-11T06:58:37.820Z,4.45
2023-01-11T07:02:10.590Z,4.20
2023-01-11T07:05:43.939Z,5.37
2023-01-11T07:09:16.128Z,4.35
2023-01-11T07:12:48.007Z,4.50
2023-01-11T07:16:20.806Z,4.17
2023-01-11T07:19:52.538Z,3.22
2023-01-11T07:23:24.518Z,4.32
2023-01-11T07:26:59.555Z,3.70
2023-01-11T07:30:47.843Z,3.72
2023-01-11T07:34:27.047Z,3.70
2023-01-11T07:37:58.800Z,2.78
2023-01-11T07:41:49.299Z,3.80
2023-01-11T07:45:21.227Z,3.60
2023-01-11T07:48:53.463Z,3.25
2023-01-11T07:52:25.152Z,3.53
2023-01-11T07:55:57.411Z,3.67
2023-01-11T07:59:30.619Z,3.50
2023-01-11T08:03:03.047Z,4.07
2023-01-11T08:06:35.005Z,3.50
2023-01-11T08:10:07.867Z,4.82
2023-01-11T08:13:58.486Z,3.58
2023-01-11T08:17:31.800Z,4.07
2023-01-11T08:21:03.688Z,3.08
2023-01-11T08:24:36.008Z,3.15
2023-01-11T08:28:08.132Z,3.07
2023-01-11T08:31:40.456Z,3.38
2023-01-11T08:35:12.938Z,3.35
2023-01-11T08:38:45.315Z,3.60
2023-01-11T08:42:17.708Z,3.17
2023-01-11T08:45:52.591Z,3.35
2023-01-11T08:49:24.516Z,3.90
2023-01-11T08:52:56.635Z,2.67
2023-01-11T08:56:28.371Z,3.20
2023-01-11T09:00:00.753Z,4.38
2023-01-11T09:03:33.552Z,3.47
2023-01-11T09:07:05.513Z,2.47
2023-01-11T09:10:38.015Z,3.08
2023-01-11T09:14:10.038Z,3.50
2023-01-11T09:17:41.696Z,4.00
2023-01-11T09:21:14.143Z,3.47
2023-01-11T09:24:45.858Z,3.60
2023-01-11T09:28:18.652Z,2.63
2023-01-11T09:31:50.439Z,3.85
2023-01-11T09:35:23.028Z,4.38
2023-01-11T09:38:57.460Z,3.23
2023-01-11T09:42:39.723Z,3.00
2023-01-11T09:46:14.262Z,2.15
2023-01-11T09:49:56.080Z,2.93
2023-01-11T09:53:34.920Z,2.42
2023-01-11T09:57:39.852Z,2.78
2023-01-11T10:01:34.081Z,3.42
2023-01-11T10:05:29.812Z,1.80
2023-01-11T10:18:33.346Z,1.73
2023-01-11T10:22:18.051Z,3.17
2023-01-11T10:25:55.056Z,1.15
2023-01-11T10:29:58.415Z,3.97
2023-01-11T10:34:16.223Z,2.60
2023-01-11T10:37:50.938Z,2.17
2023-01-11T10:41:38.607Z,2.25
2023-01-11T10:45:16.701Z,1.90
2023-01-11T10:48:56.370Z,2.47
2023-01-11T10:52:51.656Z,1.63
2023-01-11T10:57:03.036Z,1.80
2023-01-11T11:00:45.137Z,1.58
2023-01-11T11:04:37.245Z,2.72
2023-01-11T11:08:27.236Z,2.40
2023-01-11T11:12:08.404Z,3.00
2023-01-11T11:15:54.867Z,2.72
2023-01-11T11:19:32.819Z,2.33
2023-01-11T11:23:05.071Z,2.67
2023-01-11T11:26:43.318Z,2.60
2023-01-11T11:30:27.189Z,2.85
2023-01-11T11:34:27.337Z,1.30
2023-01-11T11:37:59.995Z,2.85
2023-01-11T11:41:47.659Z,2.72
2023-01-11T11:45:19.898Z,1.67
2023-01-11T11:49:17.214Z,2.10
2023-01-11T11:53:03.764Z,2.15
2023-01-11T11:56:41.923Z,2.38
2023-01-11T12:00:25.950Z,2.47
2023-01-11T12:04:01.719Z,2.58
2023-01-11T12:07:54.327Z,2.95
2023-01-11T12:11:38.865Z,1.90
2023-01-11T12:15:16.542Z,2.28
2023-01-11T12:18:49.023Z,2.30
2023-01-11T12:22:26.586Z,2.73
2023-01-11T12:25:58.674Z,1.92
2023-01-11T12:30:08.657Z,2.85
2023-01-11T12:34:06.993Z,3.10
2023-01-11T12:37:59.187Z,2.70
2023-01-11T12:41:52.770Z,2.42
2023-01-11T12:45:30.288Z,2.58
2023-01-11T12:49:36.955Z,1.93
2023-01-11T12:53:44.218Z,1.98
2023-01-11T12:57:36.834Z,2.30
2023-01-11T13:01:17.944Z,1.67
2023-01-11T13:05:09.925Z,1.42
2023-01-11T13:08:44.451Z,1.48
2023-01-11T13:12:35.290Z,1.92
2023-01-11T13:16:13.445Z,1.50
2023-01-11T13:20:04.013Z,1.35
2023-01-11T13:23:44.523Z,1.13
2023-01-11T13:27:22.597Z,1.30
2023-01-11T13:30:55.700Z,1.77
2023-01-11T13:34:40.588Z,2.40
2023-01-11T13:38:34.556Z,3.00
2023-01-11T13:42:47.039Z,3.72
2023-01-11T13:46:41.578Z,3.13
2023-01-11T13:50:28.357Z,2.55
2023-01-11T13:54:37.916Z,3.70
2023-01-11T13:58:20.302Z,3.42
2023-01-11T14:02:04.977Z,2.55
2023-01-11T14:06:20.540Z,2.80
2023-01-11T14:10:29.709Z,2.33
2023-01-11T14:14:20.816Z,3.20
2023-01-11T14:18:22.063Z,2.23
2023-01-11T14:22:23.059Z,2.90
2023-01-11T14:26:24.817Z,2.50
2023-01-11T14:30:15.215Z,2.72
2023-01-11T14:33:55.825Z,4.10
2023-01-11T14:37:53.012Z,3.95
2023-01-11T14:41:59.247Z,2.45
2023-01-11T14:46:04.242Z,1.90
2023-01-11T14:49:45.187Z,3.13
2023-01-11T14:53:23.867Z,3.00
2023-01-11T14:56:57.431Z,2.47
2023-01-11T15:00:29.604Z,2.22
2023-01-11T15:04:01.751Z,2.75
2023-01-11T15:07:37.966Z,4.20
2023-01-11T15:11:25.091Z,2.57
2023-01-11T15:15:04.952Z,2.65
2023-01-11T15:18:46.800Z,3.33
2023-01-11T15:22:37.411Z,4.43
2023-01-11T15:26:09.782Z,2.85
2023-01-11T15:29:46.220Z,3.10
2023-01-11T15:33:18.368Z,2.87
2023-01-11T15:37:06.515Z,2.85
2023-01-11T15:40:42.089Z,3.30
2023-01-11T15:44:43.926Z,2.75
2023-01-11T15:48:43.498Z,3.87
2023-01-11T15:53:12.582Z,3.20
2023-01-11T15:57:02.127Z,3.13
2023-01-11T16:00:45.983Z,3.27
2023-01-11T16:04:30.826Z,3.55
2023-01-11T16:08:27.215Z,2.65
2023-01-11T16:12:14.172Z,4.20
2023-01-11T16:16:10.541Z,3.50
2023-01-11T16:19:45.824Z,3.38
2023-01-11T16:23:20.949Z,3.25
2023-01-11T16:26:58.889Z,3.30
2023-01-11T16:30:31.655Z,2.90
2023-01-11T16:34:07.082Z,3.65
2023-01-11T16:38:01.401Z,3.30
2023-01-11T16:42:01.783Z,3.88
2023-01-11T16:45:43.800Z,3.42
2023-01-11T16:49:18.060Z,2.33
2023-01-11T16:52:53.583Z,3.63
2023-01-11T16:56:30.623Z,3.38
2023-01-11T17:00:06.900Z,3.30
2023-01-11T17:03:49.301Z,3.17
2023-01-11T17:07:21.016Z,2.58
2023-01-11T17:10:56.150Z,4.57
2023-01-11T17:14:55.792Z,4.77
2023-01-11T17:18:27.779Z,2.17
2023-01-11T17:22:22.565Z,5.78
2023-01-11T17:25:57.041Z,5.03
2023-01-11T17:29:32.809Z,6.43
2023-01-11T17:33:05.493Z,6.13
2023-01-11T17:36:37.436Z,6.93
2023-01-11T17:40:30.482Z,6.47
2023-01-11T17:44:21.598Z,4.65
2023-01-11T17:47:55.244Z,5.38
2023-01-11T17:51:32.007Z,6.80
2023-01-11T17:55:15.279Z,5.85
2023-01-11T17:58:46.986Z,5.53
2023-01-11T18:02:19.185Z,7.50
2023-01-11T18:05:50.942Z,6.53
2023-01-11T18:09:37.437Z,6.72
2023-01-11T18:13:23.889Z,6.65
2023-01-11T18:16:57.982Z,5.70
2023-01-11T18:20:29.714Z,6.38
2023-01-11T18:24:14.469Z,6.57
2023-01-11T18:27:47.131Z,6.63
2023-01-11T18:31:19.569Z,4.63
2023-01-11T18:34:54.264Z,3.25
2023-01-11T18:38:34.819Z,4.37
2023-01-11T18:42:09.665Z,5.63
2023-01-11T18:45:42.251Z,5.43
2023-01-11T18:49:14.128Z,6.47
2023-01-11T18:52:46.409Z,5.10
2023-01-11T18:56:18.172Z,6.72
2023-01-11T18:59:54.658Z,5.07
2023-01-11T19:03:26.471Z,7.37
2023-01-11T19:06:58.503Z,7.57
2023-01-11T19:10:30.389Z,7.35
2023-01-11T19:14:02.412Z,4.40
2023-01-11T19:17:34.171Z,5.75
2023-01-11T19:21:14.126Z,8.52
2023-01-11T19:24:45.854Z,6.95
2023-01-11T19:28:18.193Z,5.77
2023-01-11T19:31:51.963Z,7.07
2023-01-11T19:35:24.047Z,5.53
2023-01-11T19:38:55.964Z,6.30
2023-01-11T19:42:28.377Z,7.13
2023-01-11T19:46:02.041Z,5.60
2023-01-11T19:49:34.338Z,6.30
2023-01-11T19:53:06.753Z,5.07
2023-01-11T19:56:39.363Z,7.88
2023-01-11T20:00:14.200Z,3.83
2023-01-11T20:03:46.778Z,5.43
2023-01-11T20:07:18.571Z,7.38
2023-01-11T20:10:51.388Z,7.30
2023-01-11T20:14:23.260Z,8.67
2023-01-11T20:17:56.250Z,7.85
2023-01-11T20:21:31.592Z,8.27
2023-01-11T20:25:04.739Z,8.57
2023-01-11T20:28:36.876Z,8.77
2023-01-11T20:32:35.027Z,5.45
2023-01-11T20:36:23.779Z,7.30
2023-01-11T20:39:55.590Z,5.83
2023-01-11T20:43:28.028Z,8.73
2023-01-11T20:47:00.373Z,7.75
2023-01-11T20:50:36.288Z,8.33
2023-01-11T20:54:08.479Z,7.82
2023-01-11T20:57:41.291Z,7.20
2023-01-11T21:01:13.672Z,7.23
2023-01-11T21:04:46.487Z,7.63
2023-01-11T21:08:18.409Z,5.85
2023-01-11T21:11:53.937Z,7.20
2023-01-11T21:15:26.175Z,6.37
2023-01-11T21:19:04.966Z,6.07
2023-01-11T21:22:36.842Z,4.75
2023-01-11T21:26:16.558Z,6.97
2023-01-11T21:29:48.964Z,6.75
2023-01-11T21:33:22.350Z,6.63
2023-01-11T21:36:54.441Z,6.80
2023-01-11T21:40:27.733Z,5.82
2023-01-11T21:43:59.887Z,5.68
2023-01-11T21:47:31.909Z,6.68
2023-01-11T21:51:08.323Z,6.53
2023-01-11T21:54:43.457Z,6.07
2023-01-11T21:58:17.246Z,5.38
2023-01-11T22:01:50.259Z,6.43
2023-01-11T22:05:23.726Z,5.28
2023-01-11T22:08:55.528Z,7.22
2023-01-11T22:12:27.614Z,6.07
2023-01-11T22:16:01.795Z,6.50
2023-01-11T22:19:33.980Z,6.40
2023-01-11T22:23:06.049Z,5.10
2023-01-11T22:26:39.010Z,6.60
2023-01-11T22:30:11.676Z,4.80
2023-01-11T22:33:46.587Z,5.13
2023-01-11T22:37:18.729Z,5.60
2023-01-11T22:40:50.819Z,5.40
2023-01-11T22:44:22.612Z,6.18
2023-01-11T22:47:55.018Z,6.60
2023-01-11T22:51:27.354Z,6.30
2023-01-11T22:54:59.563Z,5.30
2023-01-11T22:58:31.415Z,5.07
2023-01-11T23:02:04.144Z,6.73
2023-01-11T23:05:37.274Z,5.95
2023-01-11T23:09:16.057Z,4.53
2023-01-11T23:13:07.096Z,2.90
2023-01-11T23:16:40.058Z,3.22
2023-01-11T23:20:12.304Z,3.20
2023-01-11T23:23:44.358Z,5.30
2023-01-11T23:27:16.268Z,5.57
2023-01-11T23:30:48.304Z,4.45
2023-01-11T23:34:20.027Z,5.40
2023-01-11T23:37:54.566Z,3.83
2023-01-11T23:41:45.473Z,6.70
2023-01-11T23:45:17.500Z,4.32
2023-01-11T23:48:49.926Z,6.03
2023-01-11T23:52:24.628Z,7.35
2023-01-11T23:55:56.828Z,6.82
2023-01-11T23:59:28.795Z,6.03
